createdAt,value
2024-02-19T00:02:14.503Z,101546.94
2024-02-19T00:04:41.258Z,101551.47
2024-02-19T00:07:08.058Z,101554.38
2024-02-19T00:09:34.757Z,101551.59
2024-02-19T00:12:01.430Z,101549.69
2024-02-19T00:14:28.048Z,101554.84
2024-02-19T00:16:54.760Z,101547.34
2024-02-19T00:19:21.626Z,101548.72
2024-02-19T00:21:48.420Z,101552.50
2024-02-19T00:24:16.196Z,101552.50
2024-02-19T00:26:42.741Z,101552.63
2024-02-19T00:29:09.305Z,101546.50
2024-02-19T00:31:35.807Z,101555.44
2024-02-19T00:34:02.572Z,101551.03
2024-02-19T00:36:29.298Z,101547.78
2024-02-19T00:38:55.990Z,101549.72
2024-02-19T00:41:22.702Z,101544.22
2024-02-19T00:43:49.343Z,101539.78
2024-02-19T00:46:15.981Z,101536.13
2024-02-19T00:48:42.658Z,101537.66
2024-02-19T00:51:09.277Z,101526.94
2024-02-19T00:53:35.863Z,101541.03
2024-02-19T00:56:02.429Z,101527.34
2024-02-19T00:58:29.065Z,101540.41
2024-02-19T01:00:55.812Z,101531.72
2024-02-19T01:03:22.548Z,101530.06
2024-02-19T01:05:49.307Z,101534.34
2024-02-19T01:08:15.915Z,101530.66
2024-02-19T01:10:42.634Z,101540.94
2024-02-19T01:13:09.504Z,101538.66
2024-02-19T01:15:36.206Z,101526.56
2024-02-19T01:18:02.967Z,101525.28
2024-02-19T01:20:29.652Z,101533.56
2024-02-19T01:22:56.284Z,101527.72
2024-02-19T01:25:22.937Z,101523.66
2024-02-19T01:27:49.613Z,101522.09
2024-02-19T01:30:16.518Z,101514.91
2024-02-19T01:32:43.197Z,101512.19
2024-02-19T01:35:10.396Z,101513.22
2024-02-19T01:37:37.503Z,101512.13
2024-02-19T01:40:04.790Z,101500.34
2024-02-19T01:42:31.406Z,101507.34
2024-02-19T01:44:58.006Z,101505.59
2024-02-19T01:47:24.719Z,101508.13
2024-02-19T01:49:51.476Z,101510.63
2024-02-19T01:52:18.844Z,101508.44
2024-02-19T01:54:45.632Z,101514.53
2024-02-19T01:57:12.650Z,101511.88
2024-02-19T01:59:40.752Z,101511.88
2024-02-19T02:02:07.449Z,101505.88
2024-02-19T02:04:34.043Z,101496.25
2024-02-19T02:07:00.914Z,101496.13
2024-02-19T02:09:27.874Z,101492.34
2024-02-19T02:11:54.528Z,101500.09
2024-02-19T02:14:21.278Z,101497.25
2024-02-19T02:16:47.937Z,101494.53
2024-02-19T02:19:14.851Z,101484.72
2024-02-19T02:21:42.008Z,101490.53
2024-02-19T02:24:08.771Z,101485.13
2024-02-19T02:26:41.531Z,101488.03
2024-02-19T02:29:08.469Z,101483.72
2024-02-19T02:31:35.437Z,101479.44
2024-02-19T02:34:02.296Z,101475.13
2024-02-19T02:36:29.049Z,101484.88
2024-02-19T02:38:55.782Z,101486.56
2024-02-19T02:41:22.536Z,101484.78
2024-02-19T02:43:49.132Z,101484.72
2024-02-19T02:46:15.767Z,101488.34
2024-02-19T02:48:42.649Z,101482.09
2024-02-19T02:51:09.552Z,101483.88
2024-02-19T02:53:36.163Z,101477.34
2024-02-19T02:56:02.710Z,101494.72
2024-02-19T02:58:29.337Z,101492.50
2024-02-19T03:00:56.034Z,101493.97
2024-02-19T03:03:22.737Z,101496.66
2024-02-19T03:05:49.532Z,101496.53
2024-02-19T03:08:16.106Z,101501.63
2024-02-19T03:10:42.736Z,101499.38
2024-02-19T03:13:09.394Z,101500.41
2024-02-19T03:15:36.025Z,101508.81
2024-02-19T03:18:03.232Z,101502.88
2024-02-19T03:20:29.956Z,101493.16
2024-02-19T03:22:56.664Z,101490.16
2024-02-19T03:25:23.461Z,101483.38
2024-02-19T03:27:50.244Z,101487.44
2024-02-19T03:30:17.301Z,101478.41
2024-02-19T03:32:43.977Z,101480.09
2024-02-19T03:35:10.620Z,101475.50
2024-02-19T03:37:37.271Z,101480.97
2024-02-19T03:40:04.211Z,101480.22
2024-02-19T03:42:30.821Z,101470.66
2024-02-19T03:44:57.434Z,101467.22
2024-02-19T03:47:24.017Z,101469.94
2024-02-19T03:49:50.722Z,101469.13
2024-02-19T03:52:17.483Z,101474.41
2024-02-19T03:54:44.194Z,101467.09
2024-02-19T03:57:10.863Z,101453.66
2024-02-19T03:59:37.505Z,101467.91
2024-02-19T04:02:04.294Z,101463.47
2024-02-19T04:04:31.074Z,101463.41
2024-02-19T04:06:57.959Z,101454.59
2024-02-19T04:09:24.649Z,101452.66
2024-02-19T04:11:51.296Z,101455.38
2024-02-19T04:14:17.996Z,101446.63
2024-02-19T04:16:44.670Z,101449.41
2024-02-19T04:19:11.383Z,101451.28
2024-02-19T04:21:44.612Z,101461.81
2024-02-19T04:24:11.348Z,101453.78
2024-02-19T04:26:38.517Z,101457.34
2024-02-19T04:29:05.126Z,101455.38
2024-02-19T04:31:31.789Z,101459.88
2024-02-19T04:33:58.616Z,101457.19
2024-02-19T04:36:25.290Z,101457.34
2024-02-19T04:38:51.944Z,101453.59
2024-02-19T04:41:18.505Z,101451.59
2024-02-19T04:43:45.167Z,101456.75
2024-02-19T04:46:11.764Z,101456.69
2024-02-19T04:48:38.596Z,101461.81
2024-02-19T04:51:06.206Z,101454.28
2024-02-19T04:53:32.852Z,101457.50
2024-02-19T04:55:59.741Z,101454.47
2024-02-19T04:58:26.468Z,101457.25
2024-02-19T05:00:53.293Z,101449.28
2024-02-19T05:03:19.994Z,101447.09
2024-02-19T05:05:46.565Z,101448.22
2024-02-19T05:08:13.321Z,101448.66
2024-02-19T05:10:39.974Z,101454.09
2024-02-19T05:13:06.641Z,101451.59
2024-02-19T05:15:33.241Z,101446.25
2024-02-19T05:17:59.901Z,101451.66
2024-02-19T05:20:26.611Z,101452.47
2024-02-19T05:22:53.288Z,101450.72
2024-02-19T05:25:19.967Z,101452.28
2024-02-19T05:27:46.656Z,101454.50
2024-02-19T05:30:21.413Z,101459.69
2024-02-19T05:32:48.045Z,101458.16
2024-02-19T05:35:14.845Z,101460.84
2024-02-19T05:37:41.492Z,101459.97
2024-02-19T05:40:08.947Z,101466.41
2024-02-19T05:42:35.559Z,101463.66
2024-02-19T05:45:02.174Z,101458.97
2024-02-19T05:47:31.762Z,101463.19
2024-02-19T05:49:58.396Z,101457.97
2024-02-19T05:52:25.123Z,101462.50
2024-02-19T05:54:51.726Z,101463.66
2024-02-19T05:57:18.531Z,101459.28
2024-02-19T05:59:45.153Z,101457.16
2024-02-19T06:02:11.953Z,101459.69
2024-02-19T06:04:38.806Z,101463.31
2024-02-19T06:07:05.564Z,101462.38
2024-02-19T06:09:32.238Z,101468.38
2024-02-19T06:11:58.883Z,101471.06
2024-02-19T06:14:25.536Z,101465.63
2024-02-19T06:16:52.092Z,101462.69
2024-02-19T06:19:18.874Z,101464.09
2024-02-19T06:21:45.543Z,101454.81
2024-02-19T06:24:12.269Z,101461.75
2024-02-19T06:26:38.892Z,101464.69
2024-02-19T06:29:05.459Z,101474.88
2024-02-19T06:31:32.061Z,101470.66
2024-02-19T06:33:59.025Z,101464.22
2024-02-19T06:36:25.784Z,101471.72
2024-02-19T06:38:52.549Z,101479.69
2024-02-19T06:41:19.279Z,101476.22
2024-02-19T06:43:45.862Z,101468.91
2024-02-19T06:46:13.231Z,101471.41
2024-02-19T06:48:42.959Z,101475.88
2024-02-19T06:51:09.651Z,101482.28
2024-02-19T06:53:36.250Z,101489.41
2024-02-19T06:56:02.961Z,101480.72
2024-02-19T06:58:29.772Z,101483.53
2024-02-19T07:00:56.610Z,101480.28
2024-02-19T07:03:23.279Z,101480.34
2024-02-19T07:05:49.948Z,101485.72
2024-02-19T07:08:16.589Z,101482.44
2024-02-19T07:10:43.303Z,101479.53
2024-02-19T07:13:10.137Z,101484.38
2024-02-19T07:15:36.689Z,101480.03
2024-02-19T07:18:03.461Z,101477.59
2024-02-19T07:20:30.137Z,101477.59
2024-02-19T07:22:56.728Z,101479.63
2024-02-19T07:25:23.358Z,101482.00
2024-02-19T07:27:50.107Z,101478.69
2024-02-19T07:30:16.790Z,101483.25
2024-02-19T07:32:43.518Z,101474.94
2024-02-19T07:35:10.267Z,101474.59
2024-02-19T07:37:37.061Z,101482.19
2024-02-19T07:40:04.131Z,101479.88
2024-02-19T07:42:30.733Z,101469.63
2024-02-19T07:44:57.266Z,101469.88
2024-02-19T07:47:23.919Z,101482.63
2024-02-19T07:49:50.536Z,101487.13
2024-02-19T07:52:17.436Z,101474.78
2024-02-19T07:54:44.110Z,101483.56
2024-02-19T07:57:10.694Z,101476.53
2024-02-19T07:59:37.312Z,101475.09
2024-02-19T08:02:05.428Z,101481.34
2024-02-19T08:04:32.409Z,101470.53
2024-02-19T08:07:01.280Z,101473.88
2024-02-19T08:09:28.598Z,101474.91
2024-02-19T08:11:55.833Z,101482.00
2024-02-19T08:14:22.742Z,101473.00
2024-02-19T08:16:50.166Z,101481.69
2024-02-19T08:19:17.461Z,101475.41
2024-02-19T08:21:44.371Z,101484.19
2024-02-19T08:24:11.009Z,101478.22
2024-02-19T08:26:37.576Z,101477.75
2024-02-19T08:29:04.191Z,101473.44
2024-02-19T08:31:30.985Z,101483.34
2024-02-19T08:33:58.184Z,101481.56
2024-02-19T08:36:24.892Z,101472.44
2024-02-19T08:38:54.471Z,101475.13
2024-02-19T08:41:21.334Z,101474.59
2024-02-19T08:43:48.373Z,101468.56
2024-02-19T08:46:16.231Z,101464.88
2024-02-19T08:48:43.723Z,101463.94
2024-02-19T08:51:10.197Z,101459.91
2024-02-19T08:53:36.834Z,101461.22
2024-02-19T08:56:03.607Z,101451.31
2024-02-19T08:58:30.224Z,101455.19
2024-02-19T09:00:56.944Z,101448.34
2024-02-19T09:03:23.602Z,101452.59
2024-02-19T09:05:50.275Z,101454.03
2024-02-19T09:08:16.890Z,101447.63
2024-02-19T09:10:43.569Z,101444.88
2024-02-19T09:13:11.517Z,101448.25
2024-02-19T09:15:38.139Z,101446.28
2024-02-19T09:18:04.982Z,101448.66
2024-02-19T09:20:31.712Z,101446.13
2024-02-19T09:22:58.270Z,101447.22
2024-02-19T09:25:25.136Z,101450.94
2024-02-19T09:27:51.813Z,101447.88
2024-02-19T09:30:18.857Z,101444.81
2024-02-19T09:32:45.570Z,101443.13
2024-02-19T09:35:12.289Z,101438.91
2024-02-19T09:37:38.905Z,101443.94
2024-02-19T09:40:06.763Z,101444.56
2024-02-19T09:42:34.447Z,101438.47
2024-02-19T09:45:01.210Z,101434.84
2024-02-19T09:47:28.538Z,101434.66
2024-02-19T09:49:56.401Z,101431.91
2024-02-19T09:52:28.052Z,101430.00
2024-02-19T09:54:56.784Z,101418.00
2024-02-19T09:57:23.439Z,101418.97
2024-02-19T09:59:50.240Z,101420.13
2024-02-19T10:02:17.071Z,101426.47
2024-02-19T10:04:43.852Z,101414.75
2024-02-19T10:07:10.576Z,101418.50
2024-02-19T10:09:37.202Z,101415.16
2024-02-19T10:12:03.946Z,101416.19
2024-02-19T10:14:30.584Z,101409.31
2024-02-19T10:17:00.595Z,101401.53
2024-02-19T10:19:27.475Z,101397.28
2024-02-19T10:21:54.605Z,101405.81
2024-02-19T10:24:21.208Z,101400.91
2024-02-19T10:26:47.942Z,101393.09
2024-02-19T10:29:14.483Z,101387.78
2024-02-19T10:31:41.312Z,101386.03
2024-02-19T10:34:10.977Z,101381.69
2024-02-19T10:36:38.111Z,101372.03
2024-02-19T10:39:05.147Z,101368.47
2024-02-19T10:41:32.029Z,101373.53
2024-02-19T10:43:58.693Z,101365.03
2024-02-19T10:46:25.981Z,101355.91
2024-02-19T10:48:53.126Z,101364.75
2024-02-19T10:51:21.155Z,101353.03
2024-02-19T10:53:48.057Z,101353.13
2024-02-19T10:56:19.882Z,101353.66
2024-02-19T10:59:05.465Z,101347.81
2024-02-19T11:01:41.875Z,101345.13
2024-02-19T11:04:26.380Z,101345.97
2024-02-19T11:06:55.127Z,101333.47
2024-02-19T11:09:28.927Z,101326.53
2024-02-19T11:11:58.925Z,101326.00
2024-02-19T11:14:28.339Z,101322.59
2024-02-19T11:16:55.120Z,101322.69
2024-02-19T11:19:22.162Z,101320.69
2024-02-19T11:21:49.158Z,101317.38
2024-02-19T11:24:16.033Z,101323.56
2024-02-19T11:26:43.821Z,101316.38
2024-02-19T11:29:17.364Z,101318.31
2024-02-19T11:31:44.103Z,101315.44
2024-02-19T11:34:20.878Z,101316.38
2024-02-19T11:36:47.943Z,101314.81
2024-02-19T11:39:14.624Z,101309.09
2024-02-19T11:41:42.001Z,101305.53
2024-02-19T11:44:09.060Z,101305.19
2024-02-19T11:46:35.857Z,101306.41
2024-02-19T11:49:02.648Z,101306.72
2024-02-19T11:51:29.910Z,101294.25
2024-02-19T11:53:56.838Z,101298.66
2024-02-19T11:56:23.628Z,101295.88
2024-02-19T11:58:50.977Z,101300.31
2024-02-19T12:01:23.574Z,101300.31
2024-02-19T12:03:52.088Z,101293.72
2024-02-19T12:06:18.744Z,101292.09
2024-02-19T12:08:45.546Z,101287.41
2024-02-19T12:11:12.673Z,101291.56
2024-02-19T12:13:39.421Z,101292.25
2024-02-19T12:16:06.491Z,101282.28
2024-02-19T12:18:33.266Z,101287.59
2024-02-19T12:21:00.091Z,101286.47
2024-02-19T12:23:27.088Z,101275.94
2024-02-19T12:25:53.937Z,101275.94
2024-02-19T12:28:20.569Z,101276.81
2024-02-19T12:30:47.306Z,101281.94
2024-02-19T12:33:14.173Z,101279.16
2024-02-19T12:35:41.958Z,101278.13
2024-02-19T12:38:08.961Z,101280.03
2024-02-19T12:40:35.768Z,101279.25
2024-02-19T12:43:02.517Z,101275.63
2024-02-19T12:45:29.223Z,101271.28
2024-02-19T12:47:56.015Z,101264.34
2024-02-19T12:50:22.762Z,101266.69
2024-02-19T12:52:49.617Z,101259.81
2024-02-19T12:55:19.338Z,101260.50
2024-02-19T12:57:46.841Z,101260.25
2024-02-19T13:00:13.796Z,101261.47
2024-02-19T13:02:40.659Z,101259.81
2024-02-19T13:05:07.854Z,101243.94
2024-02-19T13:07:34.640Z,101247.06
2024-02-19T13:10:01.518Z,101241.69
2024-02-19T13:12:28.266Z,101236.91
2024-02-19T13:14:54.866Z,101243.00
2024-02-19T13:17:26.225Z,101246.66
2024-02-19T13:19:59.238Z,101249.84
2024-02-19T13:22:26.074Z,101250.28
2024-02-19T13:24:52.741Z,101245.75
2024-02-19T13:27:19.370Z,101246.19
2024-02-19T13:29:45.951Z,101241.88
2024-02-19T13:32:12.746Z,101241.53
2024-02-19T13:34:39.469Z,101235.00
2024-02-19T13:37:06.210Z,101231.56
2024-02-19T13:39:34.483Z,101231.28
2024-02-19T13:42:01.346Z,101224.19
2024-02-19T13:44:28.160Z,101221.50
2024-02-19T13:46:54.825Z,101225.91
2024-02-19T13:49:21.692Z,101222.53
2024-02-19T13:51:48.400Z,101223.13
2024-02-19T13:54:15.046Z,101225.63
2024-02-19T13:56:41.719Z,101227.38
2024-02-19T13:59:08.307Z,101227.53
2024-02-19T14:01:36.272Z,101225.13
2024-02-19T14:04:04.605Z,101230.41
2024-02-19T14:06:31.402Z,101232.16
2024-02-19T14:08:58.171Z,101231.19
2024-02-19T14:11:24.935Z,101228.06
2024-02-19T14:13:58.156Z,101231.69
2024-02-19T14:16:28.967Z,101223.31
2024-02-19T14:18:55.980Z,101227.03
2024-02-19T14:21:22.729Z,101220.78
2024-02-19T14:23:49.347Z,101226.09
2024-02-19T14:26:15.966Z,101228.25
2024-02-19T14:28:42.557Z,101219.13
2024-02-19T14:31:09.280Z,101218.19
2024-02-19T14:33:35.917Z,101221.13
2024-02-19T14:36:02.571Z,101216.25
2024-02-19T14:38:29.306Z,101213.34
2024-02-19T14:40:55.995Z,101224.69
2024-02-19T14:43:22.654Z,101227.44
2024-02-19T14:45:49.379Z,101214.97
2024-02-19T14:48:16.301Z,101218.03
2024-02-19T14:50:43.201Z,101219.75
2024-02-19T14:53:10.220Z,101225.47
2024-02-19T14:55:36.948Z,101229.88
2024-02-19T14:58:05.842Z,101231.69
2024-02-19T15:00:32.481Z,101230.06
2024-02-19T15:02:59.082Z,101224.88
2024-02-19T15:05:25.928Z,101224.25
2024-02-19T15:07:52.867Z,101226.41
2024-02-19T15:10:19.631Z,101228.84
2024-02-19T15:12:46.465Z,101222.16
2024-02-19T15:15:15.106Z,101222.94
2024-02-19T15:17:41.872Z,101235.09
2024-02-19T15:20:09.401Z,101226.31
2024-02-19T15:22:36.031Z,101229.91
2024-02-19T15:25:02.735Z,101235.69
2024-02-19T15:27:29.334Z,101231.34
2024-02-19T15:29:56.425Z,101217.91
2024-02-19T15:32:22.972Z,101224.13
2024-02-19T15:34:50.105Z,101224.31
2024-02-19T15:37:17.976Z,101235.50
2024-02-19T15:39:44.844Z,101229.06
2024-02-19T15:42:12.231Z,101230.66
2024-02-19T15:44:38.920Z,101229.59
2024-02-19T15:47:05.596Z,101219.47
2024-02-19T15:49:32.398Z,101220.25
2024-02-19T15:51:59.068Z,101215.75
2024-02-19T15:54:25.701Z,101223.19
2024-02-19T15:56:52.329Z,101228.75
2024-02-19T15:59:19.042Z,101226.38
2024-02-19T16:01:45.820Z,101230.66
2024-02-19T16:04:12.718Z,101237.00
2024-02-19T16:06:39.354Z,101234.44
2024-02-19T16:09:06.229Z,101235.22
2024-02-19T16:11:33.023Z,101237.13
2024-02-19T16:13:59.692Z,101231.63
2024-02-19T16:16:26.392Z,101241.31
2024-02-19T16:18:53.110Z,101238.44
2024-02-19T16:21:19.681Z,101246.69
2024-02-19T16:23:46.307Z,101237.00
2024-02-19T16:26:12.934Z,101246.16
2024-02-19T16:28:39.850Z,101244.09
2024-02-19T16:31:06.535Z,101243.13
2024-02-19T16:33:33.310Z,101245.38
2024-02-19T16:35:59.995Z,101244.66
2024-02-19T16:38:26.606Z,101247.19
2024-02-19T16:40:53.816Z,101250.97
2024-02-19T16:43:20.692Z,101249.03
2024-02-19T16:45:47.814Z,101247.22
2024-02-19T16:48:14.518Z,101249.91
2024-02-19T16:50:41.136Z,101253.38
2024-02-19T16:53:07.789Z,101258.25
2024-02-19T16:55:34.486Z,101258.59
2024-02-19T16:58:01.232Z,101260.41
2024-02-19T17:00:27.889Z,101262.06
2024-02-19T17:02:54.404Z,101262.16
2024-02-19T17:05:21.425Z,101260.22
2024-02-19T17:07:48.452Z,101260.41
2024-02-19T17:10:15.359Z,101261.44
2024-02-19T17:12:43.795Z,101256.34
2024-02-19T17:15:11.124Z,101259.59
2024-02-19T17:17:37.767Z,101266.47
2024-02-19T17:20:04.773Z,101262.25
2024-02-19T17:22:31.548Z,101261.19
2024-02-19T17:24:58.246Z,101254.72
2024-02-19T17:27:24.990Z,101259.28
2024-02-19T17:29:51.575Z,101250.34
2024-02-19T17:32:18.202Z,101253.91
2024-02-19T17:34:44.804Z,101257.47
2024-02-19T17:37:11.433Z,101250.34
2024-02-19T17:39:38.096Z,101236.72
2024-02-19T17:42:05.025Z,101242.19
2024-02-19T17:44:31.688Z,101245.06
2024-02-19T17:46:58.352Z,101234.47
2024-02-19T17:49:25.095Z,101244.03
2024-02-19T17:51:51.818Z,101240.03
2024-02-19T17:54:18.395Z,101240.97
2024-02-19T17:56:45.071Z,101232.72
2024-02-19T17:59:12.187Z,101236.47
2024-02-19T18:01:39.674Z,101236.47
2024-02-19T18:04:06.358Z,101228.41
2024-02-19T18:06:33.636Z,101228.56
2024-02-19T18:09:01.740Z,101219.72
2024-02-19T18:11:28.410Z,101218.84
2024-02-19T18:13:54.995Z,101229.78
2024-02-19T18:16:22.581Z,101225.28
2024-02-19T18:18:49.458Z,101223.81
2024-02-19T18:21:16.302Z,101228.13
2024-02-19T18:23:43.128Z,101235.59
2024-02-19T18:26:10.196Z,101232.81
2024-02-19T18:28:36.847Z,101227.44
2024-02-19T18:31:04.119Z,101225.63
2024-02-19T18:33:33.516Z,101228.22
2024-02-19T18:36:00.111Z,101227.44
2024-02-19T18:38:26.817Z,101239.50
2024-02-19T18:40:53.371Z,101237.00
2024-02-19T18:43:20.027Z,101233.50
2024-02-19T18:45:46.654Z,101230.38
2024-02-19T18:48:13.266Z,101231.47
2024-02-19T18:50:40.260Z,101235.31
2024-02-19T18:53:07.043Z,101223.50
2024-02-19T18:55:33.715Z,101230.91
2024-02-19T18:58:00.380Z,101234.22
2024-02-19T19:00:27.078Z,101234.88
2024-02-19T19:02:53.752Z,101230.06
2024-02-19T19:05:20.420Z,101231.13
2024-02-19T19:07:47.080Z,101228.59
2024-02-19T19:10:13.735Z,101227.81
2024-02-19T19:12:40.474Z,101227.81
2024-02-19T19:15:07.660Z,101224.34
2024-02-19T19:17:34.898Z,101228.53
2024-02-19T19:20:01.893Z,101226.44
2024-02-19T19:22:28.689Z,101225.94
2024-02-19T19:24:55.305Z,101228.44
2024-02-19T19:27:21.902Z,101222.22
2024-02-19T19:29:48.544Z,101230.22
2024-02-19T19:32:15.104Z,101228.63
2024-02-19T19:34:41.805Z,101228.34
2024-02-19T19:37:08.444Z,101228.69
2024-02-19T19:39:35.172Z,101232.13
2024-02-19T19:42:01.794Z,101228.69
2024-02-19T19:44:28.359Z,101233.09
2024-02-19T19:46:54.963Z,101228.91
2024-02-19T19:49:21.794Z,101239.75
2024-02-19T19:51:48.613Z,101227.53
2024-02-19T19:54:15.347Z,101233.13
2024-02-19T19:56:42.025Z,101229.75
2024-02-19T19:59:09.242Z,101229.97
2024-02-19T20:01:36.824Z,101232.13
2024-02-19T20:04:04.575Z,101236.41
2024-02-19T20:06:31.339Z,101238.19
2024-02-19T20:08:58.597Z,101233.78
2024-02-19T20:11:25.256Z,101239.25
2024-02-19T20:13:51.898Z,101234.00
2024-02-19T20:16:18.488Z,101232.13
2024-02-19T20:18:45.248Z,101232.28
2024-02-19T20:21:12.697Z,101232.19
2024-02-19T20:23:39.145Z,101231.56
2024-02-19T20:26:08.930Z,101227.41
2024-02-19T20:28:35.652Z,101232.06
2024-02-19T20:31:02.810Z,101232.00
2024-02-19T20:33:30.049Z,101238.38
2024-02-19T20:35:56.755Z,101232.88
2024-02-19T20:38:23.865Z,101230.19
2024-02-19T20:40:50.992Z,101236.47
2024-02-19T20:43:17.926Z,101235.69
2024-02-19T20:45:44.530Z,101228.50
2024-02-19T20:48:11.318Z,101232.16
2024-02-19T20:50:39.273Z,101230.31
2024-02-19T20:53:06.218Z,101237.44
2024-02-19T20:55:33.354Z,101236.56
2024-02-19T20:58:00.104Z,101229.38
2024-02-19T21:00:26.771Z,101230.19
2024-02-19T21:02:53.475Z,101237.03
2024-02-19T21:05:20.155Z,101238.69
2024-02-19T21:07:46.815Z,101234.25
2024-02-19T21:10:13.789Z,101223.50
2024-02-19T21:12:43.871Z,101237.03
2024-02-19T21:15:10.761Z,101230.41
2024-02-19T21:17:37.448Z,101224.84
2024-02-19T21:20:04.640Z,101237.41
2024-02-19T21:22:31.343Z,101227.97
2024-02-19T21:24:59.100Z,101230.47
2024-02-19T21:27:26.975Z,101226.84
2024-02-19T21:29:54.316Z,101238.69
2024-02-19T21:32:21.118Z,101227.72
2024-02-19T21:34:48.270Z,101227.22
2024-02-19T21:37:15.225Z,101225.41
2024-02-19T21:39:41.841Z,101226.72
2024-02-19T21:42:08.522Z,101225.84
2024-02-19T21:44:35.343Z,101224.13
2024-02-19T21:47:01.969Z,101214.25
2024-02-19T21:49:28.640Z,101224.97
2024-02-19T21:51:55.841Z,101225.94
2024-02-19T21:54:22.580Z,101223.00
2024-02-19T21:56:49.215Z,101219.47
2024-02-19T21:59:15.780Z,101224.06
2024-02-19T22:01:42.477Z,101224.84
2024-02-19T22:04:09.163Z,101222.16
2024-02-19T22:06:36.028Z,101216.06
2024-02-19T22:09:02.713Z,101218.69
2024-02-19T22:11:29.487Z,101216.06
2024-02-19T22:13:56.979Z,101217.81
2024-02-19T22:16:23.548Z,101212.59
2024-02-19T22:18:50.270Z,101210.97
2024-02-19T22:21:16.991Z,101208.41
2024-02-19T22:23:43.660Z,101221.00
2024-02-19T22:26:10.329Z,101215.00
2024-02-19T22:28:37.050Z,101216.63
2024-02-19T22:31:03.863Z,101211.34
2024-02-19T22:33:30.844Z,101203.22
2024-02-19T22:35:57.498Z,101203.22
2024-02-19T22:38:24.186Z,101204.25
2024-02-19T22:40:50.763Z,101204.44
2024-02-19T22:43:17.411Z,101204.16
2024-02-19T22:45:43.989Z,101204.47
2024-02-19T22:48:10.865Z,101203.94
2024-02-19T22:50:38.561Z,101199.59
2024-02-19T22:53:06.028Z,101207.56
2024-02-19T22:55:32.684Z,101197.97
2024-02-19T22:57:59.373Z,101197.88
2024-02-19T23:00:26.256Z,101198.94
2024-02-19T23:02:54.610Z,101202.88
2024-02-19T23:05:21.498Z,101193.56
2024-02-19T23:07:48.288Z,101196.63
2024-02-19T23:10:15.050Z,101195.34
2024-02-19T23:12:41.701Z,101194.09
2024-02-19T23:15:08.727Z,101193.69
2024-02-19T23:17:35.384Z,101188.41
2024-02-19T23:20:02.201Z,101190.47
2024-02-19T23:22:28.876Z,101190.84
2024-02-19T23:24:55.590Z,101185.31
2024-02-19T23:27:22.201Z,101189.28
2024-02-19T23:29:48.945Z,101185.56
2024-02-19T23:32:15.647Z,101179.78
2024-02-19T23:34:42.309Z,101177.63
2024-02-19T23:37:09.121Z,101180.19
2024-02-19T23:39:38.070Z,101178.94
2024-02-19T23:42:05.432Z,101181.31
2024-02-19T23:44:32.129Z,101177.63
2024-02-19T23:46:58.786Z,101184.50
2024-02-19T23:49:25.530Z,101178.19
2024-02-19T23:51:52.285Z,101183.28
2024-02-19T23:54:18.959Z,101186.25
2024-02-19T23:56:45.588Z,101180.91
2024-02-19T23:59:12.143Z,101180.03
